createdAt,value
2023-10-23T00:00:09.536Z,9.95
2023-10-23T00:02:42.277Z,9.77
2023-10-23T00:05:10.833Z,9.78
2023-10-23T00:07:39.221Z,9.82
2023-10-23T00:10:09.090Z,9.80
2023-10-23T00:12:37.489Z,9.76
2023-10-23T00:15:06.633Z,9.74
2023-10-23T00:17:35.074Z,9.75
2023-10-23T00:20:05.129Z,9.66
2023-10-23T00:22:33.397Z,9.71
2023-10-23T00:25:01.662Z,9.69
2023-10-23T00:27:30.026Z,9.77
2023-10-23T00:29:58.338Z,9.69
2023-10-23T00:32:26.822Z,9.83
2023-10-23T00:34:55.085Z,9.79
2023-10-23T00:37:24.761Z,9.81
2023-10-23T00:39:53.181Z,9.85
2023-10-23T00:42:21.426Z,9.82
2023-10-23T00:44:49.861Z,9.94
2023-10-23T00:47:19.750Z,9.97
2023-10-23T00:49:48.010Z,9.97
2023-10-23T00:52:16.793Z,9.93
2023-10-23T00:54:48.067Z,9.94
2023-10-23T00:57:16.473Z,9.86
2023-10-23T00:59:45.168Z,9.74
2023-10-23T01:02:13.794Z,9.70
2023-10-23T01:04:42.579Z,9.67
2023-10-23T01:07:11.443Z,9.63
2023-10-23T01:09:39.970Z,9.59
2023-10-23T01:12:10.387Z,9.56
2023-10-23T01:14:38.829Z,9.59
2023-10-23T01:17:08.273Z,9.62
2023-10-23T01:19:36.707Z,9.59
2023-10-23T01:22:05.195Z,9.47
2023-10-23T01:24:38.351Z,9.55
2023-10-23T01:27:08.262Z,9.53
2023-10-23T01:29:37.311Z,9.49
2023-10-23T01:32:06.072Z,9.53
2023-10-23T01:34:34.520Z,9.54
2023-10-23T01:37:02.796Z,9.65
2023-10-23T01:39:31.052Z,9.64
2023-10-23T01:42:00.417Z,9.54
2023-10-23T01:44:30.121Z,9.50
2023-10-23T01:46:58.439Z,9.57
2023-10-23T01:49:27.190Z,9.64
2023-10-23T01:51:56.094Z,9.59
2023-10-23T01:54:24.503Z,9.57
2023-10-23T01:56:52.874Z,9.61
2023-10-23T01:59:21.117Z,9.57
2023-10-23T02:01:50.833Z,9.53
2023-10-23T02:04:19.161Z,9.51
2023-10-23T02:06:47.542Z,9.53
2023-10-23T02:09:17.378Z,9.48
2023-10-23T02:11:45.940Z,9.45
2023-10-23T02:14:14.315Z,9.40
2023-10-23T02:16:41.643Z,9.39
2023-10-23T02:19:11.421Z,9.42
2023-10-23T02:21:39.770Z,9.46
2023-10-23T02:24:08.398Z,9.40
2023-10-23T02:26:36.585Z,9.38
2023-10-23T02:29:04.843Z,9.40
2023-10-23T02:31:33.188Z,9.30
2023-10-23T02:34:01.441Z,9.25
2023-10-23T02:36:31.614Z,9.27
2023-10-23T02:39:00.783Z,9.31
2023-10-23T02:41:31.886Z,9.22
2023-10-23T02:44:00.201Z,9.19
2023-10-23T02:46:28.676Z,9.22
2023-10-23T02:48:56.999Z,9.22
2023-10-23T02:51:25.589Z,9.27
2023-10-23T02:53:55.238Z,9.20
2023-10-23T02:56:23.535Z,9.21
2023-10-23T02:58:51.764Z,9.21
2023-10-23T03:01:22.493Z,9.09
2023-10-23T03:03:50.856Z,9.08
2023-10-23T03:06:19.557Z,9.08
2023-10-23T03:08:47.924Z,9.04
2023-10-23T03:11:17.599Z,9.14
2023-10-23T03:13:46.022Z,9.10
2023-10-23T03:16:15.741Z,9.19
2023-10-23T03:18:44.149Z,9.17
2023-10-23T03:21:12.581Z,9.18
2023-10-23T03:23:40.808Z,9.07
2023-10-23T03:26:09.061Z,9.04
2023-10-23T03:28:38.735Z,9.05
2023-10-23T03:31:06.934Z,8.97
2023-10-23T03:33:35.162Z,8.93
2023-10-23T03:36:03.412Z,8.86
2023-10-23T03:38:31.962Z,8.86
2023-10-23T03:41:01.795Z,8.81
2023-10-23T03:43:30.516Z,8.76
2023-10-23T03:46:04.173Z,8.79
2023-10-23T03:48:32.562Z,8.80
2023-10-23T03:51:02.242Z,8.93
2023-10-23T03:53:30.608Z,8.95
2023-10-23T03:55:58.848Z,9.01
2023-10-23T03:58:27.100Z,9.01
2023-10-23T04:00:56.019Z,9.00
2023-10-23T04:03:25.915Z,8.95
2023-10-23T04:05:54.311Z,9.06
2023-10-23T04:08:22.652Z,9.01
2023-10-23T04:10:51.362Z,8.98
2023-10-23T04:13:19.673Z,8.95
2023-10-23T04:15:55.565Z,8.96
2023-10-23T04:18:26.762Z,9.00
2023-10-23T04:21:04.698Z,9.02
2023-10-23T04:23:33.187Z,8.98
2023-10-23T04:26:01.630Z,8.95
2023-10-23T04:28:30.090Z,8.92
2023-10-23T04:30:58.368Z,8.88
2023-10-23T04:33:28.492Z,8.83
2023-10-23T04:35:58.021Z,8.82
2023-10-23T04:38:26.949Z,8.87
2023-10-23T04:40:55.319Z,8.83
2023-10-23T04:43:24.292Z,8.78
2023-10-23T04:45:54.427Z,8.82
2023-10-23T04:48:23.185Z,8.82
2023-10-23T04:50:52.801Z,8.87
2023-10-23T04:53:21.639Z,8.87
2023-10-23T04:55:49.956Z,8.85
2023-10-23T04:58:18.353Z,8.85
2023-10-23T05:00:46.826Z,8.82
2023-10-23T05:03:15.195Z,8.82
2023-10-23T05:05:49.210Z,8.78
2023-10-23T05:08:18.942Z,8.76
2023-10-23T05:10:47.323Z,8.63
2023-10-23T05:13:15.613Z,8.60
2023-10-23T05:15:44.017Z,8.66
2023-10-23T05:18:12.355Z,8.68
2023-10-23T05:20:40.589Z,8.81
2023-10-23T05:23:08.827Z,8.72
2023-10-23T05:25:40.194Z,8.80
2023-10-23T05:28:08.514Z,8.89
2023-10-23T05:30:36.726Z,8.94
2023-10-23T05:33:05.544Z,8.95
2023-10-23T05:35:34.035Z,8.95
2023-10-23T05:38:02.348Z,9.04
2023-10-23T05:40:33.497Z,8.97
2023-10-23T05:43:03.312Z,8.93
2023-10-23T05:45:31.746Z,8.89
2023-10-23T05:48:00.064Z,8.82
2023-10-23T05:50:28.372Z,8.82
2023-10-23T05:52:56.612Z,8.79
2023-10-23T05:55:24.902Z,8.73
2023-10-23T05:57:53.738Z,8.71
2023-10-23T06:00:23.589Z,8.73
2023-10-23T06:02:52.206Z,8.74
2023-10-23T06:05:20.499Z,8.75
2023-10-23T06:07:49.010Z,8.73
2023-10-23T06:10:17.479Z,8.71
2023-10-23T06:12:45.723Z,8.67
2023-10-23T06:15:13.995Z,8.62
2023-10-23T06:17:43.659Z,8.50
2023-10-23T06:20:12.793Z,8.51
2023-10-23T06:22:41.003Z,8.55
2023-10-23T06:25:10.036Z,8.63
2023-10-23T06:27:38.313Z,8.64
2023-10-23T06:30:07.917Z,8.62
2023-10-23T06:32:36.558Z,8.62
2023-10-23T06:35:07.366Z,8.65
2023-10-23T06:37:35.692Z,8.66
2023-10-23T06:40:04.205Z,8.71
2023-10-23T06:42:32.496Z,8.75
2023-10-23T06:45:00.954Z,8.78
2023-10-23T06:47:29.650Z,8.87
2023-10-23T06:49:57.903Z,8.92
2023-10-23T06:52:27.600Z,8.86
2023-10-23T06:54:55.859Z,8.86
2023-10-23T06:57:24.132Z,8.85
2023-10-23T06:59:55.387Z,8.82
2023-10-23T07:02:23.893Z,8.88
2023-10-23T07:04:52.181Z,8.97
2023-10-23T07:07:29.018Z,8.80
2023-10-23T07:10:01.631Z,8.82
2023-10-23T07:12:30.212Z,8.89
2023-10-23T07:14:58.525Z,8.89
2023-10-23T07:17:27.017Z,8.87
2023-10-23T07:19:55.311Z,8.89
2023-10-23T07:22:23.523Z,8.85
2023-10-23T07:24:51.756Z,8.91
2023-10-23T07:27:21.508Z,8.98
2023-10-23T07:29:49.876Z,9.01
2023-10-23T07:32:18.154Z,9.11
2023-10-23T07:34:46.381Z,9.11
2023-10-23T07:37:19.300Z,9.14
2023-10-23T07:39:48.986Z,9.26
2023-10-23T07:42:17.532Z,9.32
2023-10-23T07:44:47.421Z,9.47
2023-10-23T07:47:15.909Z,9.33
2023-10-23T07:49:44.138Z,9.41
2023-10-23T07:52:12.456Z,9.50
2023-10-23T07:54:40.753Z,9.59
2023-10-23T07:57:09.031Z,9.59
2023-10-23T07:59:37.440Z,9.64
2023-10-23T08:02:07.990Z,9.83
2023-10-23T08:04:36.421Z,9.79
2023-10-23T08:07:04.985Z,9.81
2023-10-23T08:09:33.265Z,9.88
2023-10-23T08:12:01.486Z,9.94
2023-10-23T08:14:29.822Z,9.93
2023-10-23T08:16:58.134Z,10.00
2023-10-23T08:19:28.015Z,10.06
2023-10-23T08:21:56.411Z,10.10
2023-10-23T08:24:24.894Z,10.08
2023-10-23T08:26:53.237Z,10.25
2023-10-23T08:29:21.571Z,10.35
2023-10-23T08:31:49.854Z,10.37
2023-10-23T08:34:22.358Z,10.56
2023-10-23T08:36:52.389Z,10.63
2023-10-23T08:39:20.857Z,10.63
2023-10-23T08:41:49.745Z,10.58
2023-10-23T08:44:18.163Z,10.70
2023-10-23T08:46:46.447Z,10.87
2023-10-23T08:49:17.405Z,10.90
2023-10-23T08:51:51.141Z,10.92
2023-10-23T08:54:22.652Z,11.05
2023-10-23T08:56:55.700Z,11.09
2023-10-23T08:59:24.128Z,11.13
2023-10-23T09:01:52.729Z,11.11
2023-10-23T09:04:27.226Z,11.20
2023-10-23T09:06:57.294Z,11.12
2023-10-23T09:09:27.769Z,11.23
2023-10-23T09:11:56.062Z,11.40
2023-10-23T09:14:26.002Z,11.52
2023-10-23T09:16:56.011Z,11.49
2023-10-23T09:19:29.218Z,11.54
2023-10-23T09:22:00.816Z,11.56
2023-10-23T09:24:34.790Z,11.60
2023-10-23T09:27:03.189Z,11.69
2023-10-23T09:29:31.491Z,11.73
2023-10-23T09:32:00.714Z,11.81
2023-10-23T09:34:30.988Z,11.88
2023-10-23T09:36:59.762Z,11.87
2023-10-23T09:39:28.233Z,11.81
2023-10-23T09:41:58.499Z,11.94
2023-10-23T09:44:29.168Z,12.07
2023-10-23T09:47:00.842Z,12.06
2023-10-23T09:49:31.120Z,12.12
2023-10-23T09:52:01.831Z,12.07
2023-10-23T09:54:32.724Z,12.10
2023-10-23T09:57:06.045Z,12.10
2023-10-23T09:59:43.408Z,12.13
2023-10-23T10:02:12.670Z,12.06
2023-10-23T10:04:51.468Z,12.13
2023-10-23T10:07:25.004Z,12.15
2023-10-23T10:09:54.777Z,12.19
2023-10-23T10:12:26.804Z,12.23
2023-10-23T10:14:57.586Z,12.22
2023-10-23T10:17:27.712Z,12.30
2023-10-23T10:19:57.378Z,12.30
2023-10-23T10:22:30.027Z,12.34
2023-10-23T10:24:59.114Z,12.44
2023-10-23T10:27:29.531Z,12.50
2023-10-23T10:29:57.823Z,12.48
2023-10-23T10:32:26.322Z,12.52
2023-10-23T10:34:57.726Z,12.43
2023-10-23T10:37:29.006Z,12.50
2023-10-23T10:40:09.057Z,12.62
2023-10-23T10:42:43.354Z,12.51
2023-10-23T10:45:20.955Z,12.45
2023-10-23T10:47:52.987Z,12.58
2023-10-23T10:50:36.033Z,12.67
2023-10-23T10:53:05.683Z,12.79
2023-10-23T10:55:34.723Z,12.72
2023-10-23T10:58:05.254Z,12.72
2023-10-23T11:00:36.678Z,12.86
2023-10-23T11:03:05.493Z,12.91
2023-10-23T11:05:34.236Z,12.95
2023-10-23T11:08:02.596Z,13.16
2023-10-23T11:10:30.871Z,13.09
2023-10-23T11:13:00.319Z,13.10
2023-10-23T11:15:29.997Z,13.26
2023-10-23T11:17:58.535Z,13.25
2023-10-23T11:20:32.040Z,13.27
2023-10-23T11:23:00.737Z,13.24
2023-10-23T11:25:29.238Z,13.29
2023-10-23T11:27:57.605Z,13.38
2023-10-23T11:30:30.751Z,13.21
2023-10-23T11:32:59.049Z,13.26
2023-10-23T11:35:35.017Z,13.30
2023-10-23T11:38:05.888Z,13.33
2023-10-23T11:40:37.975Z,13.33
2023-10-23T11:43:10.818Z,13.39
2023-10-23T11:45:41.368Z,13.39
2023-10-23T11:48:10.192Z,13.37
2023-10-23T11:50:39.538Z,13.37
2023-10-23T11:53:08.062Z,13.34
2023-10-23T11:55:40.144Z,13.29
2023-10-23T11:58:08.516Z,13.25
2023-10-23T12:00:38.889Z,13.27
2023-10-23T12:03:08.637Z,13.25
2023-10-23T12:05:36.943Z,13.30
2023-10-23T12:08:06.235Z,13.36
2023-10-23T12:10:39.246Z,13.36
2023-10-23T12:13:07.797Z,13.49
2023-10-23T12:15:36.046Z,13.40
2023-10-23T12:18:05.650Z,13.44
2023-10-23T12:20:36.567Z,13.44
2023-10-23T12:23:04.806Z,13.50
2023-10-23T12:25:33.084Z,13.55
2023-10-23T12:28:01.347Z,13.46
2023-10-23T12:30:29.648Z,13.45
2023-10-23T12:33:16.629Z,13.55
2023-10-23T12:35:49.682Z,13.43
2023-10-23T12:38:19.206Z,13.37
2023-10-23T12:40:49.889Z,13.36
2023-10-23T12:43:18.376Z,13.52
2023-10-23T12:45:47.835Z,13.44
2023-10-23T12:48:16.606Z,13.40
2023-10-23T12:50:45.629Z,13.47
2023-10-23T12:53:15.704Z,13.51
2023-10-23T12:55:44.892Z,13.49
2023-10-23T12:58:13.188Z,13.38
2023-10-23T13:00:41.566Z,13.30
2023-10-23T13:03:09.902Z,13.37
2023-10-23T13:05:38.216Z,13.25
2023-10-23T13:08:06.825Z,13.35
2023-10-23T13:10:36.704Z,13.31
2023-10-23T13:13:05.018Z,13.35
2023-10-23T13:15:33.356Z,13.33
2023-10-23T13:18:03.830Z,13.30
2023-10-23T13:21:28.277Z,13.29
2023-10-23T13:23:20.423Z,13.21
2023-10-23T13:26:05.769Z,13.25
2023-10-23T13:28:38.323Z,13.25
2023-10-23T13:31:06.763Z,13.21
2023-10-23T13:33:35.056Z,13.17
2023-10-23T13:36:03.373Z,13.09
2023-10-23T13:38:33.224Z,13.25
2023-10-23T13:41:03.673Z,13.14
2023-10-23T13:43:31.977Z,13.06
2023-10-23T13:46:00.450Z,13.16
2023-10-23T13:48:29.038Z,13.19
2023-10-23T13:50:57.805Z,13.08
2023-10-23T13:53:26.067Z,13.10
2023-10-23T13:55:54.484Z,13.12
2023-10-23T13:58:24.214Z,13.12
2023-10-23T14:00:52.551Z,13.06
2023-10-23T14:03:20.829Z,12.99
2023-10-23T14:05:49.085Z,13.11
2023-10-23T14:08:17.442Z,13.11
2023-10-23T14:10:46.169Z,13.12
2023-10-23T14:13:35.741Z,13.15
2023-10-23T14:16:05.711Z,13.04
2023-10-23T14:18:34.079Z,13.11
2023-10-23T14:21:02.301Z,13.06
2023-10-23T14:23:30.534Z,13.04
2023-10-23T14:25:58.788Z,13.04
2023-10-23T14:28:27.154Z,12.97
2023-10-23T14:30:57.985Z,12.93
2023-10-23T14:33:27.860Z,12.91
2023-10-23T14:35:56.273Z,12.93
2023-10-23T14:38:25.728Z,12.94
2023-10-23T14:40:54.846Z,13.00
2023-10-23T14:43:23.180Z,13.00
2023-10-23T14:45:52.724Z,13.03
2023-10-23T14:48:24.201Z,13.02
2023-10-23T14:50:54.465Z,12.89
2023-10-23T14:53:22.907Z,12.84
2023-10-23T14:55:51.193Z,12.79
2023-10-23T14:58:19.489Z,12.72
2023-10-23T15:00:47.837Z,12.70
2023-10-23T15:03:16.187Z,12.65
2023-10-23T15:05:45.851Z,12.64
2023-10-23T15:08:14.112Z,12.60
2023-10-23T15:10:42.382Z,12.51
2023-10-23T15:13:10.672Z,12.45
2023-10-23T15:15:39.258Z,12.40
2023-10-23T15:18:07.620Z,12.36
2023-10-23T15:20:35.842Z,12.28
2023-10-23T15:23:07.427Z,12.18
2023-10-23T15:25:35.818Z,12.17
2023-10-23T15:28:05.301Z,12.20
2023-10-23T15:30:33.898Z,12.06
2023-10-23T15:33:02.277Z,12.10
2023-10-23T15:35:30.596Z,11.99
2023-10-23T15:37:58.896Z,12.05
2023-10-23T15:40:31.006Z,11.92
2023-10-23T15:43:00.748Z,11.88
2023-10-23T15:45:38.368Z,11.92
2023-10-23T15:48:07.043Z,11.93
2023-10-23T15:50:35.486Z,11.90
2023-10-23T15:53:03.893Z,11.89
2023-10-23T15:55:34.016Z,11.88
2023-10-23T15:58:03.152Z,11.86
2023-10-23T16:00:31.524Z,11.79
2023-10-23T16:03:00.361Z,11.83
2023-10-23T16:05:28.875Z,11.84
2023-10-23T16:07:57.236Z,11.83
2023-10-23T16:10:26.673Z,11.81
2023-10-23T16:12:56.454Z,11.75
2023-10-23T16:15:24.771Z,11.75
2023-10-23T16:17:53.108Z,11.69
2023-10-23T16:20:22.088Z,11.72
2023-10-23T16:22:50.647Z,11.76
2023-10-23T16:25:19.049Z,11.74
2023-10-23T16:27:47.434Z,11.72
2023-10-23T16:30:17.293Z,11.62
2023-10-23T16:32:46.351Z,11.71
2023-10-23T16:35:14.739Z,11.54
2023-10-23T16:37:42.989Z,11.56
2023-10-23T16:40:12.722Z,11.54
2023-10-23T16:42:41.040Z,11.59
2023-10-23T16:45:10.394Z,11.53
2023-10-23T16:47:40.410Z,11.53
2023-10-23T16:50:09.810Z,11.51
2023-10-23T16:52:38.583Z,11.51
2023-10-23T16:55:09.145Z,11.47
2023-10-23T16:57:37.728Z,11.47
2023-10-23T17:00:07.583Z,11.39
2023-10-23T17:02:36.143Z,11.43
2023-10-23T17:05:06.704Z,11.46
2023-10-23T17:07:36.210Z,11.44
2023-10-23T17:10:05.416Z,11.44
2023-10-23T17:12:33.816Z,11.43
2023-10-23T17:15:02.459Z,11.42
2023-10-23T17:17:31.067Z,11.39
2023-10-23T17:19:59.663Z,11.37
2023-10-23T17:22:29.326Z,11.33
2023-10-23T17:24:57.816Z,11.40
2023-10-23T17:27:26.209Z,11.38
2023-10-23T17:29:54.496Z,11.37
2023-10-23T17:32:22.944Z,11.34
2023-10-23T17:34:51.276Z,11.42
2023-10-23T17:37:19.622Z,11.36
2023-10-23T17:39:49.381Z,11.36
2023-10-23T17:42:17.987Z,11.31
2023-10-23T17:44:46.301Z,11.34
2023-10-23T17:47:14.640Z,11.30
2023-10-23T17:49:43.583Z,11.29
2023-10-23T17:52:12.128Z,11.27
2023-10-23T17:54:41.736Z,11.34
2023-10-23T17:57:11.466Z,11.37
2023-10-23T17:59:40.124Z,11.42
2023-10-23T18:02:08.631Z,11.36
2023-10-23T18:04:37.094Z,11.38
2023-10-23T18:07:05.470Z,11.34
2023-10-23T18:09:33.839Z,11.29
2023-10-23T18:12:02.158Z,11.32
2023-10-23T18:14:31.806Z,11.30
2023-10-23T18:17:00.263Z,11.33
2023-10-23T18:19:28.762Z,11.36
2023-10-23T18:21:57.254Z,11.39
2023-10-23T18:24:25.530Z,11.52
2023-10-23T18:26:54.080Z,11.34
2023-10-23T18:29:22.369Z,11.37
2023-10-23T18:31:52.062Z,11.33
2023-10-23T18:34:20.433Z,11.34
2023-10-23T18:36:48.784Z,11.40
2023-10-23T18:39:17.122Z,11.29
2023-10-23T18:41:45.416Z,11.34
2023-10-23T18:44:13.850Z,11.29
2023-10-23T18:46:42.250Z,11.33
2023-10-23T18:49:11.996Z,11.33
2023-10-23T18:51:40.268Z,11.34
2023-10-23T18:54:08.699Z,11.31
2023-10-23T18:56:38.567Z,11.22
2023-10-23T18:59:08.167Z,11.32
2023-10-23T19:01:36.824Z,11.31
2023-10-23T19:04:05.513Z,11.30
2023-10-23T19:06:36.947Z,11.29
2023-10-23T19:09:06.753Z,11.30
2023-10-23T19:11:35.174Z,11.28
2023-10-23T19:14:03.680Z,11.30
2023-10-23T19:16:32.132Z,11.27
2023-10-23T19:19:00.569Z,11.24
2023-10-23T19:21:28.917Z,11.29
2023-10-23T19:23:58.603Z,11.33
2023-10-23T19:26:27.471Z,11.31
2023-10-23T19:28:55.763Z,11.34
2023-10-23T19:31:25.913Z,11.33
2023-10-23T19:33:54.952Z,11.29
2023-10-23T19:36:25.701Z,11.29
2023-10-23T19:38:54.711Z,11.29
2023-10-23T19:41:29.781Z,11.28
2023-10-23T19:43:58.718Z,11.26
2023-10-23T19:46:28.034Z,11.34
2023-10-23T19:48:56.835Z,11.39
2023-10-23T19:51:25.275Z,11.30
2023-10-23T19:53:54.794Z,11.32
2023-10-23T19:56:31.525Z,11.37
2023-10-23T19:59:02.404Z,11.32
2023-10-23T20:01:31.631Z,11.40
2023-10-23T20:04:00.068Z,11.31
2023-10-23T20:06:28.518Z,11.36
2023-10-23T20:08:56.774Z,11.32
2023-10-23T20:11:25.068Z,11.34
2023-10-23T20:13:53.511Z,11.27
2023-10-23T20:16:23.258Z,11.27
2023-10-23T20:18:53.262Z,11.34
2023-10-23T20:21:21.594Z,11.37
2023-10-23T20:23:49.861Z,11.42
2023-10-23T20:26:18.405Z,11.39
2023-10-23T20:28:46.738Z,11.39
2023-10-23T20:31:18.707Z,11.41
2023-10-23T20:33:50.853Z,11.39
2023-10-23T20:36:20.040Z,11.46
2023-10-23T20:38:48.616Z,11.42
2023-10-23T20:41:17.320Z,11.32
2023-10-23T20:43:46.973Z,11.39
2023-10-23T20:46:19.433Z,11.44
2023-10-23T20:48:49.217Z,11.43
2023-10-23T20:51:17.574Z,11.41
2023-10-23T20:53:45.854Z,11.42
2023-10-23T20:56:14.180Z,11.43
2023-10-23T20:58:43.176Z,11.45
2023-10-23T21:01:11.585Z,11.43
2023-10-23T21:03:40.119Z,11.49
2023-10-23T21:06:09.970Z,11.46
2023-10-23T21:08:39.709Z,11.49
2023-10-23T21:11:08.495Z,11.48
2023-10-23T21:13:37.134Z,11.47
2023-10-23T21:16:07.651Z,11.34
2023-10-23T21:18:36.008Z,11.42
2023-10-23T21:21:05.761Z,11.43
2023-10-23T21:23:35.661Z,11.41
2023-10-23T21:26:05.370Z,11.43
2023-10-23T21:28:33.670Z,11.48
2023-10-23T21:31:02.267Z,11.48
2023-10-23T21:33:31.847Z,11.45
2023-10-23T21:36:00.278Z,11.51
2023-10-23T21:38:28.560Z,11.46
2023-10-23T21:40:58.193Z,11.57
2023-10-23T21:43:26.500Z,11.52
2023-10-23T21:46:14.961Z,11.47
2023-10-23T21:48:43.059Z,11.52
2023-10-23T21:51:11.419Z,11.48
2023-10-23T21:53:40.191Z,11.52
2023-10-23T21:56:11.427Z,11.53
2023-10-23T21:59:06.800Z,11.57
2023-10-23T22:01:29.783Z,11.59
2023-10-23T22:03:58.686Z,11.62
2023-10-23T22:06:27.622Z,11.60
2023-10-23T22:08:56.408Z,11.64
2023-10-23T22:11:26.715Z,11.57
2023-10-23T22:13:55.564Z,11.44
2023-10-23T22:16:24.028Z,11.57
2023-10-23T22:18:52.787Z,11.60
2023-10-23T22:21:21.082Z,11.67
2023-10-23T22:23:49.433Z,11.73
2023-10-23T22:26:17.672Z,11.68
2023-10-23T22:28:47.854Z,11.72
2023-10-23T22:31:16.253Z,11.81
2023-10-23T22:33:44.661Z,11.77
2023-10-23T22:36:12.915Z,11.71
2023-10-23T22:38:41.315Z,11.78
2023-10-23T22:41:09.540Z,11.78
2023-10-23T22:43:37.800Z,11.70
2023-10-23T22:46:07.641Z,11.73
2023-10-23T22:48:36.045Z,11.58
2023-10-23T22:51:04.893Z,11.69
2023-10-23T22:53:34.110Z,11.63
2023-10-23T22:56:04.525Z,11.71
2023-10-23T22:58:35.220Z,11.72
2023-10-23T23:01:04.076Z,11.74
2023-10-23T23:03:34.742Z,11.74
2023-10-23T23:06:07.305Z,11.72
2023-10-23T23:08:40.841Z,11.72
2023-10-23T23:11:11.444Z,11.70
2023-10-23T23:13:40.066Z,11.74
2023-10-23T23:16:09.424Z,11.74
2023-10-23T23:18:41.010Z,11.75
2023-10-23T23:21:10.777Z,11.75
2023-10-23T23:23:39.091Z,11.76
2023-10-23T23:26:07.642Z,11.70
2023-10-23T23:28:36.570Z,11.75
2023-10-23T23:31:04.882Z,11.68
2023-10-23T23:33:33.777Z,11.54
2023-10-23T23:36:03.571Z,11.58
2023-10-23T23:38:31.932Z,11.60
2023-10-23T23:41:00.521Z,11.63
2023-10-23T23:43:28.867Z,11.70
2023-10-23T23:45:58.368Z,11.61
2023-10-23T23:48:26.754Z,11.68
2023-10-23T23:50:55.070Z,11.67
2023-10-23T23:53:24.648Z,11.63
2023-10-23T23:55:52.962Z,11.64
2023-10-23T23:58:24.960Z,11.58
